sensor_id;sensor_type;location;lat;lon;timestamp;pressure;altitude;pressure_sealevel;temperature;humidity
72685;BME280;61365;52.162;4.500;2023-07-13T00:00:52;101291.56;;;20.00;66.26
72685;BME280;61365;52.162;4.500;2023-07-13T00:03:18;101288.75;;;20.05;65.19
72685;BME280;61365;52.162;4.500;2023-07-13T00:05:44;101286.38;;;19.95;65.30
72685;BME280;61365;52.162;4.500;2023-07-13T00:08:10;101287.25;;;19.96;64.58
72685;BME280;61365;52.162;4.500;2023-07-13T00:10:40;101289.09;;;19.94;64.88
72685;BME280;61365;52.162;4.500;2023-07-13T00:13:08;101286.06;;;20.05;63.84
72685;BME280;61365;52.162;4.500;2023-07-13T00:15:34;101288.94;;;20.25;63.75
72685;BME280;61365;52.162;4.500;2023-07-13T00:18:01;101297.94;;;20.21;63.51
72685;BME280;61365;52.162;4.500;2023-07-13T00:20:27;101297.94;;;20.21;63.79
72685;BME280;61365;52.162;4.500;2023-07-13T00:22:53;101300.78;;;20.17;63.10
72685;BME280;61365;52.162;4.500;2023-07-13T00:25:22;101299.94;;;19.88;64.55
72685;BME280;61365;52.162;4.500;2023-07-13T00:27:54;101311.41;;;19.91;64.85
72685;BME280;61365;52.162;4.500;2023-07-13T00:30:21;101303.28;;;19.94;65.07
72685;BME280;61365;52.162;4.500;2023-07-13T00:32:47;101306.09;;;19.90;65.12
72685;BME280;61365;52.162;4.500;2023-07-13T00:35:14;101301.53;;;19.93;64.46
72685;BME280;61365;52.162;4.500;2023-07-13T00:37:41;101311.50;;;19.87;64.39
72685;BME280;61365;52.162;4.500;2023-07-13T00:40:09;101310.63;;;19.86;65.12
72685;BME280;61365;52.162;4.500;2023-07-13T00:42:37;101307.06;;;19.87;65.03
72685;BME280;61365;52.162;4.500;2023-07-13T00:47:39;101312.19;;;19.93;64.17
72685;BME280;61365;52.162;4.500;2023-07-13T00:50:10;101306.16;;;19.87;64.08
72685;BME280;61365;52.162;4.500;2023-07-13T00:52:40;101300.34;;;19.75;64.59
72685;BME280;61365;52.162;4.500;2023-07-13T00:55:11;101306.66;;;19.71;65.08
72685;BME280;61365;52.162;4.500;2023-07-13T00:57:40;101302.84;;;19.80;64.54
72685;BME280;61365;52.162;4.500;2023-07-13T01:00:07;101308.59;;;19.66;64.19
72685;BME280;61365;52.162;4.500;2023-07-13T01:02:35;101301.88;;;19.54;64.65
72685;BME280;61365;52.162;4.500;2023-07-13T01:05:09;101308.84;;;19.58;64.88
72685;BME280;61365;52.162;4.500;2023-07-13T01:07:41;101311.34;;;19.63;64.66
72685;BME280;61365;52.162;4.500;2023-07-13T01:10:10;101307.13;;;19.56;63.76
72685;BME280;61365;52.162;4.500;2023-07-13T01:12:37;101311.31;;;19.64;63.11
72685;BME280;61365;52.162;4.500;2023-07-13T01:15:04;101314.34;;;19.52;62.64
72685;BME280;61365;52.162;4.500;2023-07-13T01:17:31;101304.69;;;19.49;64.06
72685;BME280;61365;52.162;4.500;2023-07-13T01:19:59;101313.88;;;19.39;64.19
72685;BME280;61365;52.162;4.500;2023-07-13T01:22:25;101309.53;;;19.37;63.96
72685;BME280;61365;52.162;4.500;2023-07-13T01:24:53;101310.47;;;19.34;64.23
72685;BME280;61365;52.162;4.500;2023-07-13T01:27:21;101310.53;;;19.32;64.35
72685;BME280;61365;52.162;4.500;2023-07-13T01:29:50;101314.28;;;19.25;64.52
72685;BME280;61365;52.162;4.500;2023-07-13T01:32:22;101319.28;;;19.36;63.64
72685;BME280;61365;52.162;4.500;2023-07-13T01:34:51;101324.78;;;19.30;64.04
72685;BME280;61365;52.162;4.500;2023-07-13T01:37:19;101332.59;;;19.36;63.98
72685;BME280;61365;52.162;4.500;2023-07-13T01:39:46;101330.97;;;19.30;64.74
72685;BME280;61365;52.162;4.500;2023-07-13T01:42:13;101319.75;;;19.20;64.49
72685;BME280;61365;52.162;4.500;2023-07-13T01:44:39;101323.16;;;18.93;64.44
72685;BME280;61365;52.162;4.500;2023-07-13T01:47:05;101322.03;;;19.03;64.52
72685;BME280;61365;52.162;4.500;2023-07-13T01:49:31;101334.19;;;19.12;65.27
72685;BME280;61365;52.162;4.500;2023-07-13T01:51:58;101337.75;;;19.11;64.39
72685;BME280;61365;52.162;4.500;2023-07-13T01:54:24;101334.28;;;19.09;64.84
72685;BME280;61365;52.162;4.500;2023-07-13T01:56:50;101336.56;;;19.21;64.32
72685;BME280;61365;52.162;4.500;2023-07-13T01:59:16;101333.69;;;18.97;65.17
72685;BME280;61365;52.162;4.500;2023-07-13T02:01:42;101337.09;;;19.02;64.64
72685;BME280;61365;52.162;4.500;2023-07-13T02:04:08;101338.03;;;19.01;65.01
72685;BME280;61365;52.162;4.500;2023-07-13T02:06:34;101338.75;;;19.07;65.69
72685;BME280;61365;52.162;4.500;2023-07-13T02:09:00;101336.34;;;18.97;65.45
72685;BME280;61365;52.162;4.500;2023-07-13T02:11:26;101339.06;;;18.94;66.44
72685;BME280;61365;52.162;4.500;2023-07-13T02:14:01;101338.19;;;18.95;66.25
72685;BME280;61365;52.162;4.500;2023-07-13T02:16:28;101349.16;;;18.81;66.31
72685;BME280;61365;52.162;4.500;2023-07-13T02:18:55;101347.00;;;18.97;66.66
72685;BME280;61365;52.162;4.500;2023-07-13T02:21:22;101349.91;;;18.86;66.05
72685;BME280;61365;52.162;4.500;2023-07-13T02:23:49;101347.44;;;18.80;66.87
72685;BME280;61365;52.162;4.500;2023-07-13T02:26:15;101343.84;;;18.81;66.94
72685;BME280;61365;52.162;4.500;2023-07-13T02:28:42;101348.84;;;18.94;67.04
72685;BME280;61365;52.162;4.500;2023-07-13T02:31:09;101350.47;;;18.99;66.82
72685;BME280;61365;52.162;4.500;2023-07-13T02:33:36;101347.34;;;18.83;66.46
72685;BME280;61365;52.162;4.500;2023-07-13T02:36:03;101338.66;;;18.76;67.59
72685;BME280;61365;52.162;4.500;2023-07-13T02:38:31;101344.97;;;18.74;67.74
72685;BME280;61365;52.162;4.500;2023-07-13T02:41:05;101344.28;;;18.66;68.38
72685;BME280;61365;52.162;4.500;2023-07-13T02:43:32;101344.03;;;18.75;67.45
72685;BME280;61365;52.162;4.500;2023-07-13T02:45:59;101341.53;;;18.69;68.37
72685;BME280;61365;52.162;4.500;2023-07-13T02:48:35;101341.41;;;18.73;67.77
72685;BME280;61365;52.162;4.500;2023-07-13T02:51:03;101342.69;;;18.91;68.03
72685;BME280;61365;52.162;4.500;2023-07-13T02:53:29;101343.84;;;18.81;67.81
72685;BME280;61365;52.162;4.500;2023-07-13T02:55:56;101343.81;;;18.83;67.65
72685;BME280;61365;52.162;4.500;2023-07-13T02:58:22;101338.44;;;18.86;67.42
72685;BME280;61365;52.162;4.500;2023-07-13T03:00:49;101349.16;;;18.83;68.44
72685;BME280;61365;52.162;4.500;2023-07-13T03:03:15;101347.91;;;18.96;67.30
72685;BME280;61365;52.162;4.500;2023-07-13T03:05:43;101345.28;;;18.93;67.85
72685;BME280;61365;52.162;4.500;2023-07-13T03:08:10;101347.81;;;18.99;67.54
72685;BME280;61365;52.162;4.500;2023-07-13T03:10:37;101349.91;;;18.88;68.13
72685;BME280;61365;52.162;4.500;2023-07-13T03:13:05;101353.38;;;18.90;68.17
72685;BME280;61365;52.162;4.500;2023-07-13T03:15:31;101354.31;;;18.87;68.45
72685;BME280;61365;52.162;4.500;2023-07-13T03:17:57;101357.69;;;18.96;68.69
72685;BME280;61365;52.162;4.500;2023-07-13T03:20:23;101363.00;;;18.96;68.94
72685;BME280;61365;52.162;4.500;2023-07-13T03:22:50;101357.03;;;18.86;68.93
72685;BME280;61365;52.162;4.500;2023-07-13T03:25:16;101355.13;;;18.91;69.25
72685;BME280;61365;52.162;4.500;2023-07-13T03:27:42;101356.13;;;18.87;69.68
72685;BME280;61365;52.162;4.500;2023-07-13T03:30:08;101352.59;;;18.86;70.07
72685;BME280;61365;52.162;4.500;2023-07-13T03:32:35;101350.59;;;18.95;69.94
72685;BME280;61365;52.162;4.500;2023-07-13T03:35:01;101348.88;;;18.92;70.05
72685;BME280;61365;52.162;4.500;2023-07-13T03:37:27;101356.22;;;18.84;70.80
72685;BME280;61365;52.162;4.500;2023-07-13T03:39:53;101355.41;;;18.80;71.09
72685;BME280;61365;52.162;4.500;2023-07-13T03:42:20;101359.56;;;18.90;70.86
72685;BME280;61365;52.162;4.500;2023-07-13T03:44:46;101361.44;;;18.87;71.09
72685;BME280;61365;52.162;4.500;2023-07-13T03:47:18;101359.66;;;18.87;71.34
72685;BME280;61365;52.162;4.500;2023-07-13T03:49:44;101354.13;;;18.95;71.73
72685;BME280;61365;52.162;4.500;2023-07-13T03:52:11;101359.38;;;18.98;71.51
72685;BME280;61365;52.162;4.500;2023-07-13T03:54:37;101359.03;;;18.78;72.57
72685;BME280;61365;52.162;4.500;2023-07-13T03:57:04;101367.16;;;18.71;73.00
72685;BME280;61365;52.162;4.500;2023-07-13T03:59:30;101366.16;;;18.75;73.12
72685;BME280;61365;52.162;4.500;2023-07-13T04:01:56;101357.97;;;18.85;73.16
72685;BME280;61365;52.162;4.500;2023-07-13T04:04:22;101361.53;;;18.84;73.33
72685;BME280;61365;52.162;4.500;2023-07-13T04:06:48;101368.59;;;18.85;73.32
72685;BME280;61365;52.162;4.500;2023-07-13T04:09:14;101367.59;;;18.89;73.21
72685;BME280;61365;52.162;4.500;2023-07-13T04:11:40;101370.91;;;18.99;73.14
72685;BME280;61365;52.162;4.500;2023-07-13T04:14:06;101369.72;;;19.09;72.96
72685;BME280;61365;52.162;4.500;2023-07-13T04:16:33;101368.69;;;19.15;71.93
72685;BME280;61365;52.162;4.500;2023-07-13T04:18:59;101378.88;;;19.30;71.71
72685;BME280;61365;52.162;4.500;2023-07-13T04:21:26;101380.75;;;19.27;71.84
72685;BME280;61365;52.162;4.500;2023-07-13T04:23:54;101375.31;;;19.30;72.12
72685;BME280;61365;52.162;4.500;2023-07-13T04:26:20;101383.31;;;19.30;71.67
72685;BME280;61365;52.162;4.500;2023-07-13T04:28:47;101378.66;;;19.38;71.36
72685;BME280;61365;52.162;4.500;2023-07-13T04:31:14;101383.00;;;19.71;69.87
72685;BME280;61365;52.162;4.500;2023-07-13T04:33:40;101384.84;;;19.69;69.83
72685;BME280;61365;52.162;4.500;2023-07-13T04:36:06;101386.22;;;19.82;69.29
72685;BME280;61365;52.162;4.500;2023-07-13T04:38:33;101387.53;;;20.25;68.01
72685;BME280;61365;52.162;4.500;2023-07-13T04:41:00;101380.91;;;20.37;67.45
72685;BME280;61365;52.162;4.500;2023-07-13T04:43:27;101380.31;;;20.29;67.35
72685;BME280;61365;52.162;4.500;2023-07-13T04:45:54;101385.75;;;20.53;66.97
72685;BME280;61365;52.162;4.500;2023-07-13T04:48:21;101389.16;;;20.57;66.57
72685;BME280;61365;52.162;4.500;2023-07-13T04:50:48;101395.69;;;20.48;66.27
72685;BME280;61365;52.162;4.500;2023-07-13T04:53:20;101390.81;;;20.34;66.44
72685;BME280;61365;52.162;4.500;2023-07-13T04:55:46;101397.38;;;20.23;67.07
72685;BME280;61365;52.162;4.500;2023-07-13T04:58:13;101393.94;;;20.74;65.94
72685;BME280;61365;52.162;4.500;2023-07-13T05:00:39;101397.84;;;21.39;64.01
72685;BME280;61365;52.162;4.500;2023-07-13T05:03:05;101401.19;;;21.92;62.06
72685;BME280;61365;52.162;4.500;2023-07-13T05:05:31;101409.50;;;22.51;59.84
72685;BME280;61365;52.162;4.500;2023-07-13T05:07:58;101396.00;;;23.16;57.67
72685;BME280;61365;52.162;4.500;2023-07-13T05:10:24;101413.81;;;23.57;56.05
72685;BME280;61365;52.162;4.500;2023-07-13T05:12:50;101406.69;;;23.94;55.14
72685;BME280;61365;52.162;4.500;2023-07-13T05:15:17;101409.78;;;24.23;53.15
72685;BME280;61365;52.162;4.500;2023-07-13T05:17:49;101417.00;;;24.04;53.74
72685;BME280;61365;52.162;4.500;2023-07-13T05:20:16;101419.78;;;23.62;54.70
72685;BME280;61365;52.162;4.500;2023-07-13T05:22:44;101421.69;;;23.20;56.12
72685;BME280;61365;52.162;4.500;2023-07-13T05:25:12;101421.50;;;22.41;58.03
72685;BME280;61365;52.162;4.500;2023-07-13T05:27:39;101427.16;;;22.55;58.08
72685;BME280;61365;52.162;4.500;2023-07-13T05:30:05;101425.28;;;22.57;57.76
72685;BME280;61365;52.162;4.500;2023-07-13T05:34:58;101426.44;;;22.93;56.49
72685;BME280;61365;52.162;4.500;2023-07-13T05:37:25;101426.44;;;22.52;57.61
72685;BME280;61365;52.162;4.500;2023-07-13T05:39:51;101423.13;;;22.45;56.96
72685;BME280;61365;52.162;4.500;2023-07-13T05:42:17;101433.75;;;22.02;58.57
72685;BME280;61365;52.162;4.500;2023-07-13T05:44:43;101429.66;;;23.01;56.20
72685;BME280;61365;52.162;4.500;2023-07-13T05:47:09;101432.78;;;23.91;53.74
72685;BME280;61365;52.162;4.500;2023-07-13T05:49:35;101428.47;;;24.25;52.34
72685;BME280;61365;52.162;4.500;2023-07-13T05:52:01;101432.16;;;24.77;51.08
72685;BME280;61365;52.162;4.500;2023-07-13T05:54:27;101437.34;;;24.62;51.10
72685;BME280;61365;52.162;4.500;2023-07-13T05:56:53;101438.97;;;23.91;52.55
72685;BME280;61365;52.162;4.500;2023-07-13T05:59:19;101447.56;;;23.20;53.49
72685;BME280;61365;52.162;4.500;2023-07-13T06:01:45;101446.84;;;23.16;54.60
72685;BME280;61365;52.162;4.500;2023-07-13T06:04:12;101447.72;;;22.96;54.91
72685;BME280;61365;52.162;4.500;2023-07-13T06:06:38;101443.44;;;22.92;54.91
72685;BME280;61365;52.162;4.500;2023-07-13T06:09:04;101446.25;;;22.89;55.48
72685;BME280;61365;52.162;4.500;2023-07-13T06:11:30;101454.59;;;23.02;55.39
72685;BME280;61365;52.162;4.500;2023-07-13T06:13:56;101462.72;;;23.21;54.29
72685;BME280;61365;52.162;4.500;2023-07-13T06:16:23;101468.00;;;23.22;54.81
72685;BME280;61365;52.162;4.500;2023-07-13T06:18:49;101473.00;;;23.09;55.43
72685;BME280;61365;52.162;4.500;2023-07-13T06:21:16;101473.81;;;23.12;54.59
72685;BME280;61365;52.162;4.500;2023-07-13T06:23:45;101467.97;;;23.83;53.66
72685;BME280;61365;52.162;4.500;2023-07-13T06:26:13;101461.94;;;25.07;50.24
72685;BME280;61365;52.162;4.500;2023-07-13T06:28:40;101467.13;;;24.57;50.68
72685;BME280;61365;52.162;4.500;2023-07-13T06:31:07;101470.19;;;24.67;50.33
72685;BME280;61365;52.162;4.500;2023-07-13T06:33:34;101468.59;;;24.46;51.25
72685;BME280;61365;52.162;4.500;2023-07-13T06:36:01;101468.00;;;25.46;48.93
72685;BME280;61365;52.162;4.500;2023-07-13T06:38:28;101473.00;;;25.52;48.21
72685;BME280;61365;52.162;4.500;2023-07-13T06:40:54;101466.00;;;25.32;48.79
72685;BME280;61365;52.162;4.500;2023-07-13T06:43:20;101465.34;;;25.94;47.25
72685;BME280;61365;52.162;4.500;2023-07-13T06:45:46;101473.50;;;26.25;46.45
72685;BME280;61365;52.162;4.500;2023-07-13T06:48:15;101477.38;;;26.20;45.40
72685;BME280;61365;52.162;4.500;2023-07-13T06:50:42;101477.41;;;26.51;44.87
72685;BME280;61365;52.162;4.500;2023-07-13T06:53:10;101473.13;;;25.99;46.56
72685;BME280;61365;52.162;4.500;2023-07-13T06:55:37;101481.69;;;25.06;48.04
72685;BME280;61365;52.162;4.500;2023-07-13T06:58:04;101481.59;;;25.43;46.48
72685;BME280;61365;52.162;4.500;2023-07-13T07:00:30;101477.88;;;25.61;45.61
72685;BME280;61365;52.162;4.500;2023-07-13T07:02:56;101480.91;;;25.55;46.12
72685;BME280;61365;52.162;4.500;2023-07-13T07:05:22;101484.59;;;25.01;46.62
72685;BME280;61365;52.162;4.500;2023-07-13T07:07:53;101481.25;;;25.65;45.29
72685;BME280;61365;52.162;4.500;2023-07-13T07:10:20;101480.69;;;25.60;44.90
72685;BME280;61365;52.162;4.500;2023-07-13T07:12:47;101489.75;;;25.06;46.43
72685;BME280;61365;52.162;4.500;2023-07-13T07:15:13;101491.16;;;24.96;47.26
72685;BME280;61365;52.162;4.500;2023-07-13T07:17:39;101495.97;;;24.89;47.50
72685;BME280;61365;52.162;4.500;2023-07-13T07:20:06;101497.06;;;24.85;47.82
72685;BME280;61365;52.162;4.500;2023-07-13T07:22:32;101500.34;;;24.36;49.44
72685;BME280;61365;52.162;4.500;2023-07-13T07:24:59;101503.22;;;24.50;48.42
72685;BME280;61365;52.162;4.500;2023-07-13T07:27:25;101506.94;;;23.90;49.49
72685;BME280;61365;52.162;4.500;2023-07-13T07:29:52;101504.03;;;24.89;47.50
72685;BME280;61365;52.162;4.500;2023-07-13T07:32:18;101492.56;;;25.88;44.80
72685;BME280;61365;52.162;4.500;2023-07-13T07:34:45;101498.34;;;26.30;44.88
72685;BME280;61365;52.162;4.500;2023-07-13T07:37:12;101494.88;;;26.74;43.66
72685;BME280;61365;52.162;4.500;2023-07-13T07:39:39;101494.19;;;26.87;41.67
72685;BME280;61365;52.162;4.500;2023-07-13T07:42:05;101503.47;;;26.97;40.12
72685;BME280;61365;52.162;4.500;2023-07-13T07:44:32;101504.78;;;26.74;41.35
72685;BME280;61365;52.162;4.500;2023-07-13T07:46:59;101505.31;;;26.64;42.47
72685;BME280;61365;52.162;4.500;2023-07-13T07:49:26;101507.28;;;26.46;42.50
72685;BME280;61365;52.162;4.500;2023-07-13T07:51:52;101509.88;;;26.16;44.23
72685;BME280;61365;52.162;4.500;2023-07-13T07:54:19;101524.50;;;26.10;43.84
72685;BME280;61365;52.162;4.500;2023-07-13T07:56:45;101523.16;;;26.19;43.96
72685;BME280;61365;52.162;4.500;2023-07-13T07:59:11;101520.03;;;26.43;44.78
72685;BME280;61365;52.162;4.500;2023-07-13T08:01:37;101516.25;;;26.61;43.60
72685;BME280;61365;52.162;4.500;2023-07-13T08:04:03;101517.47;;;26.72;42.53
72685;BME280;61365;52.162;4.500;2023-07-13T08:06:31;101522.09;;;26.05;44.45
72685;BME280;61365;52.162;4.500;2023-07-13T08:08:59;101536.06;;;25.62;47.20
72685;BME280;61365;52.162;4.500;2023-07-13T08:11:26;101527.78;;;25.14;47.92
72685;BME280;61365;52.162;4.500;2023-07-13T08:13:52;101531.41;;;24.78;49.21
72685;BME280;61365;52.162;4.500;2023-07-13T08:16:18;101531.81;;;24.69;49.54
72685;BME280;61365;52.162;4.500;2023-07-13T08:18:44;101533.59;;;25.40;48.39
72685;BME280;61365;52.162;4.500;2023-07-13T08:21:10;101527.00;;;25.12;47.59
72685;BME280;61365;52.162;4.500;2023-07-13T08:23:36;101534.59;;;24.31;51.85
72685;BME280;61365;52.162;4.500;2023-07-13T08:26:03;101528.78;;;25.65;49.02
72685;BME280;61365;52.162;4.500;2023-07-13T08:28:30;101533.16;;;25.83;46.77
72685;BME280;61365;52.162;4.500;2023-07-13T08:31:02;101532.53;;;25.44;48.25
72685;BME280;61365;52.162;4.500;2023-07-13T08:33:29;101536.53;;;25.87;47.94
72685;BME280;61365;52.162;4.500;2023-07-13T08:35:55;101533.06;;;26.18;45.38
72685;BME280;61365;52.162;4.500;2023-07-13T08:38:22;101535.44;;;26.07;45.54
72685;BME280;61365;52.162;4.500;2023-07-13T08:40:50;101531.09;;;25.88;46.03
72685;BME280;61365;52.162;4.500;2023-07-13T08:43:23;101526.72;;;25.70;47.31
72685;BME280;61365;52.162;4.500;2023-07-13T08:45:53;101532.22;;;25.51;47.69
72685;BME280;61365;52.162;4.500;2023-07-13T08:48:32;101537.75;;;25.30;48.25
72685;BME280;61365;52.162;4.500;2023-07-13T08:53:48;101531.72;;;25.93;47.34
72685;BME280;61365;52.162;4.500;2023-07-13T08:56:21;101538.06;;;26.41;45.48
72685;BME280;61365;52.162;4.500;2023-07-13T08:58:58;101538.34;;;26.36;45.60
72685;BME280;61365;52.162;4.500;2023-07-13T09:04:53;101539.19;;;26.04;47.20
72685;BME280;61365;52.162;4.500;2023-07-13T09:10:36;101541.16;;;26.97;44.60
72685;BME280;61365;52.162;4.500;2023-07-13T09:13:19;101543.94;;;26.95;44.00
72685;BME280;61365;52.162;4.500;2023-07-13T09:16:12;101539.09;;;27.17;42.39
72685;BME280;61365;52.162;4.500;2023-07-13T09:18:44;101546.09;;;27.79;44.07
72685;BME280;61365;52.162;4.500;2023-07-13T09:21:17;101543.50;;;27.63;43.30
72685;BME280;61365;52.162;4.500;2023-07-13T09:23:47;101552.75;;;27.28;43.69
72685;BME280;61365;52.162;4.500;2023-07-13T09:26:19;101552.78;;;26.97;43.50
72685;BME280;61365;52.162;4.500;2023-07-13T09:28:48;101552.97;;;26.78;44.67
72685;BME280;61365;52.162;4.500;2023-07-13T09:31:24;101553.75;;;26.96;45.81
72685;BME280;61365;52.162;4.500;2023-07-13T09:34:13;101556.34;;;27.43;44.41
72685;BME280;61365;52.162;4.500;2023-07-13T09:36:39;101570.97;;;26.94;45.04
72685;BME280;61365;52.162;4.500;2023-07-13T09:39:12;101556.69;;;27.08;44.18
72685;BME280;61365;52.162;4.500;2023-07-13T09:41:48;101567.88;;;27.61;43.84
72685;BME280;61365;52.162;4.500;2023-07-13T09:44:28;101573.47;;;27.42;44.58
72685;BME280;61365;52.162;4.500;2023-07-13T09:46:56;101572.88;;;26.76;45.78
72685;BME280;61365;52.162;4.500;2023-07-13T09:49:27;101576.19;;;26.49;45.94
72685;BME280;61365;52.162;4.500;2023-07-13T09:52:02;101575.25;;;26.82;45.22
72685;BME280;61365;52.162;4.500;2023-07-13T09:54:35;101578.75;;;27.29;43.02
72685;BME280;61365;52.162;4.500;2023-07-13T09:57:03;101577.75;;;26.85;44.15
72685;BME280;61365;52.162;4.500;2023-07-13T09:59:40;101586.69;;;26.53;45.38
72685;BME280;61365;52.162;4.500;2023-07-13T10:02:42;101586.50;;;26.57;45.73
72685;BME280;61365;52.162;4.500;2023-07-13T10:05:10;101597.75;;;27.11;43.78
72685;BME280;61365;52.162;4.500;2023-07-13T10:07:39;101597.53;;;26.68;43.52
72685;BME280;61365;52.162;4.500;2023-07-13T10:10:17;101601.81;;;26.40;45.12
72685;BME280;61365;52.162;4.500;2023-07-13T10:12:46;101602.59;;;25.75;47.13
72685;BME280;61365;52.162;4.500;2023-07-13T10:15:14;101606.88;;;26.13;45.84
72685;BME280;61365;52.162;4.500;2023-07-13T10:17:43;101612.97;;;25.99;45.61
72685;BME280;61365;52.162;4.500;2023-07-13T10:20:10;101620.38;;;25.77;47.14
72685;BME280;61365;52.162;4.500;2023-07-13T10:22:42;101621.56;;;25.89;46.83
72685;BME280;61365;52.162;4.500;2023-07-13T10:25:19;101626.63;;;25.78;45.99
72685;BME280;61365;52.162;4.500;2023-07-13T10:30:42;101630.75;;;25.50;45.57
72685;BME280;61365;52.162;4.500;2023-07-13T10:33:12;101631.88;;;25.63;46.35
72685;BME280;61365;52.162;4.500;2023-07-13T10:35:40;101629.09;;;25.65;46.36
72685;BME280;61365;52.162;4.500;2023-07-13T10:38:13;101637.28;;;25.27;46.78
72685;BME280;61365;52.162;4.500;2023-07-13T10:40:53;101633.25;;;25.88;47.47
72685;BME280;61365;52.162;4.500;2023-07-13T10:43:25;101636.09;;;25.85;47.58
72685;BME280;61365;52.162;4.500;2023-07-13T10:45:54;101634.44;;;26.34;45.57
72685;BME280;61365;52.162;4.500;2023-07-13T10:48:21;101636.00;;;26.38;46.33
72685;BME280;61365;52.162;4.500;2023-07-13T10:50:50;101644.66;;;26.27;46.14
72685;BME280;61365;52.162;4.500;2023-07-13T11:00:48;101646.81;;;26.20;45.15
72685;BME280;61365;52.162;4.500;2023-07-13T11:03:20;101650.53;;;26.18;45.70
72685;BME280;61365;52.162;4.500;2023-07-13T11:05:51;101641.75;;;26.64;44.39
72685;BME280;61365;52.162;4.500;2023-07-13T11:08:39;101650.16;;;26.58;44.51
72685;BME280;61365;52.162;4.500;2023-07-13T11:18:45;101649.53;;;26.36;45.93
72685;BME280;61365;52.162;4.500;2023-07-13T11:21:25;101647.97;;;26.64;43.81
72685;BME280;61365;52.162;4.500;2023-07-13T11:23:54;101647.00;;;25.82;46.52
72685;BME280;61365;52.162;4.500;2023-07-13T11:31:52;101654.97;;;26.19;45.10
72685;BME280;61365;52.162;4.500;2023-07-13T11:34:36;101643.41;;;26.17;44.37
72685;BME280;61365;52.162;4.500;2023-07-13T11:37:08;101644.31;;;26.49;44.98
72685;BME280;61365;52.162;4.500;2023-07-13T11:39:41;101650.09;;;26.59;43.88
72685;BME280;61365;52.162;4.500;2023-07-13T11:42:11;101644.94;;;26.55;45.10
72685;BME280;61365;52.162;4.500;2023-07-13T11:44:42;101647.91;;;26.50;45.94
72685;BME280;61365;52.162;4.500;2023-07-13T11:47:19;101649.56;;;26.68;46.53
72685;BME280;61365;52.162;4.500;2023-07-13T11:49:52;101651.50;;;26.82;45.56
72685;BME280;61365;52.162;4.500;2023-07-13T11:52:22;101658.16;;;26.59;45.21
72685;BME280;61365;52.162;4.500;2023-07-13T11:54:54;101666.88;;;25.80;47.33
72685;BME280;61365;52.162;4.500;2023-07-13T11:57:32;101666.47;;;25.52;48.54
72685;BME280;61365;52.162;4.500;2023-07-13T12:00:03;101667.88;;;26.12;47.59
72685;BME280;61365;52.162;4.500;2023-07-13T12:02:42;101673.66;;;25.87;47.15
72685;BME280;61365;52.162;4.500;2023-07-13T12:05:14;101671.16;;;25.84;47.19
72685;BME280;61365;52.162;4.500;2023-07-13T12:07:43;101670.72;;;25.74;47.05
72685;BME280;61365;52.162;4.500;2023-07-13T12:13:10;101677.25;;;25.70;48.49
72685;BME280;61365;52.162;4.500;2023-07-13T12:15:45;101672.06;;;25.30;48.21
72685;BME280;61365;52.162;4.500;2023-07-13T12:18:15;101673.16;;;25.26;47.52
72685;BME280;61365;52.162;4.500;2023-07-13T12:20:44;101671.97;;;25.31;47.72
72685;BME280;61365;52.162;4.500;2023-07-13T12:23:22;101670.88;;;25.36;47.74
72685;BME280;61365;52.162;4.500;2023-07-13T12:25:51;101675.19;;;25.57;45.93
72685;BME280;61365;52.162;4.500;2023-07-13T12:28:37;101671.06;;;25.50;46.93
72685;BME280;61365;52.162;4.500;2023-07-13T12:31:54;101666.63;;;25.49;45.41
72685;BME280;61365;52.162;4.500;2023-07-13T12:34:18;101689.25;;;25.26;46.75
72685;BME280;61365;52.162;4.500;2023-07-13T12:36:48;101676.25;;;25.36;47.47
72685;BME280;61365;52.162;4.500;2023-07-13T12:39:18;101683.47;;;25.16;48.30
72685;BME280;61365;52.162;4.500;2023-07-13T12:41:47;101666.34;;;25.36;47.45
72685;BME280;61365;52.162;4.500;2023-07-13T12:44:17;101674.09;;;25.25;45.96
72685;BME280;61365;52.162;4.500;2023-07-13T12:46:58;101670.97;;;25.34;46.67
72685;BME280;61365;52.162;4.500;2023-07-13T12:49:31;101667.94;;;25.23;45.35
72685;BME280;61365;52.162;4.500;2023-07-13T12:52:01;101670.25;;;25.48;45.81
72685;BME280;61365;52.162;4.500;2023-07-13T12:54:29;101675.72;;;25.10;47.83
72685;BME280;61365;52.162;4.500;2023-07-13T12:56:57;101683.75;;;24.92;48.28
72685;BME280;61365;52.162;4.500;2023-07-13T12:59:26;101684.03;;;24.86;47.73
72685;BME280;61365;52.162;4.500;2023-07-13T13:01:56;101688.13;;;25.12;49.05
72685;BME280;61365;52.162;4.500;2023-07-13T13:04:22;101686.97;;;25.18;48.63
72685;BME280;61365;52.162;4.500;2023-07-13T13:06:49;101694.81;;;25.40;45.66
72685;BME280;61365;52.162;4.500;2023-07-13T13:09:25;101690.63;;;24.98;46.97
72685;BME280;61365;52.162;4.500;2023-07-13T13:11:52;101691.78;;;24.92;48.42
72685;BME280;61365;52.162;4.500;2023-07-13T13:14:18;101689.91;;;24.75;49.78
72685;BME280;61365;52.162;4.500;2023-07-13T13:16:48;101702.00;;;24.84;49.30
72685;BME280;61365;52.162;4.500;2023-07-13T13:19:17;101693.53;;;24.74;49.41
72685;BME280;61365;52.162;4.500;2023-07-13T13:21:47;101696.13;;;24.95;48.65
72685;BME280;61365;52.162;4.500;2023-07-13T13:24:16;101693.88;;;24.85;46.69
72685;BME280;61365;52.162;4.500;2023-07-13T13:26:45;101702.34;;;24.57;48.32
72685;BME280;61365;52.162;4.500;2023-07-13T13:29:14;101701.53;;;24.55;49.27
72685;BME280;61365;52.162;4.500;2023-07-13T13:31:42;101696.34;;;24.71;48.14
72685;BME280;61365;52.162;4.500;2023-07-13T13:34:09;101703.22;;;24.57;49.37
72685;BME280;61365;52.162;4.500;2023-07-13T13:36:37;101708.38;;;24.62;49.83
72685;BME280;61365;52.162;4.500;2023-07-13T13:39:37;101705.47;;;24.67;49.10